Time;durP1;ratioP1;P1;durP2;ratioP2;P2;SDS_P1;SDS_P2;PMS_P1;PMS_P2;Temp;Humidity;BMP_temperature;BMP_pressure;BME280_temperature;BME280_humidity;BME280_pressure;Samples;Min_cycle;Max_cycle;Signal;HPM_P1;HPM_P2
2022/03/24 00:01:16;;;;;;;3.75;2.33;;;;;;;;;;7390191;19;20074;-77
2022/03/24 00:03:41;;;;;;;3.42;2.33;;;;;;;;;;7395416;19;20006;-77
2022/03/24 00:06:07;;;;;;;5.78;2.75;;;;;;;;;;7394723;19;20018;-77
2022/03/24 00:08:33;;;;;;;3.83;2.25;;;;;;;;;;7396262;19;20456;-78
2022/03/24 00:10:59;;;;;;;5.53;2.25;;;;;;;;;;7395604;19;20021;-78
2022/03/24 00:13:24;;;;;;;5.53;2.60;;;;;;;;;;7397080;19;20002;-77
2022/03/24 00:15:50;;;;;;;4.30;2.20;;;;;;;;;;7395726;19;20340;-78
2022/03/24 00:18:16;;;;;;;5.95;2.25;;;;;;;;;;7393168;19;20077;-75
2022/03/24 00:20:41;;;;;;;3.20;1.90;;;;;;;;;;7392121;19;20033;-78
2022/03/24 00:23:06;;;;;;;4.38;2.35;;;;;;;;;;7394823;19;20049;-78
2022/03/24 00:25:32;;;;;;;3.85;2.05;;;;;;;;;;7394273;19;20006;-78
2022/03/24 00:27:57;;;;;;;3.83;2.28;;;;;;;;;;7397521;19;20007;-78
2022/03/24 00:30:22;;;;;;;4.57;2.10;;;;;;;;;;7395696;19;19995;-78
2022/03/24 00:32:47;;;;;;;2.95;2.05;;;;;;;;;;7406654;19;20007;-76
2022/03/24 00:35:14;;;;;;;5.43;2.25;;;;;;;;;;7406250;19;20482;-76
2022/03/24 00:37:39;;;;;;;3.35;1.85;;;;;;;;;;7406185;19;20006;-76
2022/03/24 00:40:07;;;;;;;3.47;2.05;;;;;;;;;;7405580;19;20017;-78
2022/03/24 00:42:35;;;;;;;5.18;2.22;;;;;;;;;;7408428;19;20469;-77
2022/03/24 00:45:01;;;;;;;3.83;2.38;;;;;;;;;;7408000;19;20027;-75
2022/03/24 00:47:26;;;;;;;2.35;1.52;;;;;;;;;;7407244;19;20073;-77
2022/03/24 00:49:52;;;;;;;4.78;2.10;;;;;;;;;;7405888;19;20482;-76
2022/03/24 00:52:17;;;;;;;4.35;1.95;;;;;;;;;;7402003;19;20011;-77
2022/03/24 00:54:42;;;;;;;3.25;1.83;;;;;;;;;;7407300;19;20230;-76
2022/03/24 00:57:08;;;;;;;2.38;1.65;;;;;;;;;;7403856;19;20026;-77
2022/03/24 00:59:33;;;;;;;2.85;1.92;;;;;;;;;;7405225;19;20010;-77
2022/03/24 01:01:59;;;;;;;2.95;1.83;;;;;;;;;;7406107;19;20490;-77
2022/03/24 01:04:24;;;;;;;3.70;2.03;;;;;;;;;;7406559;19;20362;-77
2022/03/24 01:06:50;;;;;;;2.47;1.73;;;;;;;;;;7404609;19;20007;-77
2022/03/24 01:09:15;;;;;;;4.18;1.88;;;;;;;;;;7405373;19;20511;-77
2022/03/24 01:11:40;;;;;;;3.40;2.13;;;;;;;;;;7405980;19;20013;-77
2022/03/24 01:14:07;;;;;;;2.55;1.77;;;;;;;;;;7407567;19;20348;-78
2022/03/24 01:16:34;;;;;;;5.05;2.38;;;;;;;;;;7404856;19;20010;-76
2022/03/24 01:19:00;;;;;;;2.95;1.88;;;;;;;;;;7403071;19;20460;-78
2022/03/24 01:21:25;;;;;;;2.78;1.55;;;;;;;;;;7405728;19;20062;-76
2022/03/24 01:23:50;;;;;;;2.88;1.52;;;;;;;;;;7406731;19;20009;-78
2022/03/24 01:26:16;;;;;;;2.88;1.75;;;;;;;;;;7403704;19;20010;-78
2022/03/24 01:28:42;;;;;;;3.15;1.90;;;;;;;;;;7406056;19;20014;-75
2022/03/24 01:31:10;;;;;;;3.42;1.60;;;;;;;;;;7434073;19;20477;-76
2022/03/24 01:33:39;;;;;;;2.67;1.58;;;;;;;;;;7430569;19;20015;-77
2022/03/24 01:36:06;;;;;;;3.28;1.55;;;;;;;;;;7402246;19;20010;-78
2022/03/24 01:38:32;;;;;;;3.40;1.95;;;;;;;;;;7401738;19;20573;-77
2022/03/24 01:40:58;;;;;;;3.10;1.58;;;;;;;;;;7400652;19;20027;-78
2022/03/24 01:43:24;;;;;;;3.40;2.10;;;;;;;;;;7395302;19;20014;-78
2022/03/24 01:45:49;;;;;;;3.55;1.50;;;;;;;;;;7391854;19;20010;-77
2022/03/24 01:48:15;;;;;;;3.08;1.33;;;;;;;;;;7393471;19;20111;-77
2022/03/24 01:50:40;;;;;;;3.85;1.98;;;;;;;;;;7390102;19;20338;-75
2022/03/24 01:53:06;;;;;;;2.38;1.60;;;;;;;;;;7394972;19;20442;-77
2022/03/24 01:55:33;;;;;;;4.75;2.03;;;;;;;;;;7397026;19;20002;-77
2022/03/24 01:57:59;;;;;;;3.13;1.52;;;;;;;;;;7393187;19;20315;-74
2022/03/24 02:00:24;;;;;;;2.13;1.33;;;;;;;;;;7394820;19;20042;-77
2022/03/24 02:02:52;;;;;;;3.22;1.58;;;;;;;;;;7397198;19;20374;-77
2022/03/24 02:05:17;;;;;;;3.35;1.90;;;;;;;;;;7391595;19;20011;-77
2022/03/24 02:07:42;;;;;;;2.90;1.65;;;;;;;;;;7394270;19;20010;-77
2022/03/24 02:10:08;;;;;;;5.53;1.77;;;;;;;;;;7390733;19;20013;-77
2022/03/24 02:12:34;;;;;;;2.78;1.33;;;;;;;;;;7396672;19;20037;-76
2022/03/24 02:15:00;;;;;;;4.57;1.67;;;;;;;;;;7394873;19;20437;-76
2022/03/24 02:17:30;;;;;;;2.17;1.42;;;;;;;;;;7394467;19;20143;-76
2022/03/24 02:19:57;;;;;;;4.63;1.83;;;;;;;;;;7391850;19;20007;-76
2022/03/24 02:22:23;;;;;;;2.45;1.63;;;;;;;;;;7393842;19;20010;-76
2022/03/24 02:24:48;;;;;;;2.22;1.55;;;;;;;;;;7394515;19;20006;-76
2022/03/24 02:27:14;;;;;;;3.17;1.75;;;;;;;;;;7394523;19;20028;-77
2022/03/24 02:29:40;;;;;;;3.85;1.85;;;;;;;;;;7393305;19;20010;-77
2022/03/24 02:32:11;;;;;;;3.70;1.73;;;;;;;;;;7396178;19;20015;-77
2022/03/24 02:34:37;;;;;;;3.72;2.00;;;;;;;;;;7395784;19;20492;-76
2022/03/24 02:37:07;;;;;;;5.15;1.95;;;;;;;;;;7397552;19;20035;-76
2022/03/24 02:39:34;;;;;;;3.88;1.88;;;;;;;;;;7402320;19;20099;-76
2022/03/24 02:42:00;;;;;;;4.22;1.88;;;;;;;;;;7420126;19;20072;-75
2022/03/24 02:44:30;;;;;;;4.50;2.03;;;;;;;;;;7419817;19;20344;-76
2022/03/24 02:46:56;;;;;;;2.67;1.63;;;;;;;;;;7411022;19;20017;-79
2022/03/24 02:49:24;;;;;;;3.53;1.90;;;;;;;;;;7390851;19;20017;-78
2022/03/24 02:51:50;;;;;;;3.67;1.95;;;;;;;;;;7393887;19;20070;-79
2022/03/24 02:54:17;;;;;;;3.80;1.85;;;;;;;;;;7393536;19;20003;-77
2022/03/24 02:56:42;;;;;;;3.78;2.00;;;;;;;;;;7397183;19;20018;-77
2022/03/24 02:59:09;;;;;;;3.38;1.48;;;;;;;;;;7392062;19;20021;-77
2022/03/24 03:01:35;;;;;;;3.47;1.77;;;;;;;;;;7396801;19;20529;-77
2022/03/24 03:04:01;;;;;;;2.47;1.67;;;;;;;;;;7393436;19;20122;-76
2022/03/24 03:06:27;;;;;;;2.90;2.22;;;;;;;;;;7395174;19;20028;-75
2022/03/24 03:08:52;;;;;;;3.00;1.77;;;;;;;;;;7393728;19;20544;-77
2022/03/24 03:11:22;;;;;;;2.47;1.63;;;;;;;;;;7390580;19;20027;-77
2022/03/24 03:13:47;;;;;;;3.75;1.80;;;;;;;;;;7394246;19;20036;-77
2022/03/24 03:16:13;;;;;;;3.50;1.60;;;;;;;;;;7391778;19;20376;-76
2022/03/24 03:18:41;;;;;;;2.92;1.50;;;;;;;;;;7391220;19;20446;-77
2022/03/24 03:21:08;;;;;;;3.33;1.75;;;;;;;;;;7390935;19;20006;-76
2022/03/24 03:23:34;;;;;;;4.10;1.80;;;;;;;;;;7391882;19;20037;-77
2022/03/24 03:25:59;;;;;;;3.15;1.77;;;;;;;;;;7390236;19;20014;-77
2022/03/24 03:28:25;;;;;;;2.95;1.60;;;;;;;;;;7392739;19;20011;-77
2022/03/24 03:30:50;;;;;;;2.83;1.70;;;;;;;;;;7390891;19;20462;-77
2022/03/24 03:33:18;;;;;;;5.07;1.88;;;;;;;;;;7390287;19;20331;-77
2022/03/24 03:35:44;;;;;;;4.88;2.20;;;;;;;;;;7393049;19;20458;-77
2022/03/24 03:38:10;;;;;;;7.10;3.47;;;;;;;;;;7387001;19;20006;-75
2022/03/24 03:40:36;;;;;;;9.18;3.70;;;;;;;;;;7392467;19;20018;-76
2022/03/24 03:43:01;;;;;;;8.70;3.63;;;;;;;;;;7395021;19;20009;-77
2022/03/24 03:45:26;;;;;;;11.25;4.10;;;;;;;;;;7392144;19;20384;-75
2022/03/24 03:47:52;;;;;;;8.10;3.40;;;;;;;;;;7394933;19;20022;-77
2022/03/24 03:50:17;;;;;;;5.07;2.15;;;;;;;;;;7393103;19;20014;-76
2022/03/24 03:52:43;;;;;;;5.20;2.58;;;;;;;;;;7394354;19;20002;-76
2022/03/24 03:55:10;;;;;;;4.03;1.65;;;;;;;;;;7386390;19;20013;-76
2022/03/24 03:57:35;;;;;;;6.82;1.75;;;;;;;;;;7391446;19;20377;-77
2022/03/24 04:00:52;;;;;;;6.40;1.98;;;;;;;;;;7385937;19;20462;-76
2022/03/24 04:02:46;;;;;;;4.95;2.45;;;;;;;;;;7387921;19;20021;-77
2022/03/24 04:05:11;;;;;;;2.95;1.73;;;;;;;;;;7388879;19;19999;-76
2022/03/24 04:07:37;;;;;;;2.05;1.35;;;;;;;;;;7388524;19;20010;-76
2022/03/24 04:10:02;;;;;;;2.47;1.38;;;;;;;;;;7386063;19;20013;-76
2022/03/24 04:12:28;;;;;;;2.92;1.85;;;;;;;;;;7391090;19;20034;-74
2022/03/24 04:14:53;;;;;;;2.50;1.35;;;;;;;;;;7390447;19;20002;-75
2022/03/24 04:17:18;;;;;;;2.95;1.77;;;;;;;;;;7390652;19;20081;-76
2022/03/24 04:19:44;;;;;;;3.63;1.70;;;;;;;;;;7389916;19;19994;-76
2022/03/24 04:22:09;;;;;;;3.85;1.83;;;;;;;;;;7388648;19;20495;-75
2022/03/24 04:24:34;;;;;;;5.78;2.00;;;;;;;;;;7387215;19;20027;-75
2022/03/24 04:27:00;;;;;;;4.18;2.00;;;;;;;;;;7388575;19;20002;-76
2022/03/24 04:29:25;;;;;;;2.50;1.52;;;;;;;;;;7386441;19;20010;-78
2022/03/24 04:31:51;;;;;;;3.38;1.65;;;;;;;;;;7390662;19;20010;-76
2022/03/24 04:34:16;;;;;;;5.25;1.60;;;;;;;;;;7391444;19;20010;-75
2022/03/24 04:36:41;;;;;;;3.17;1.50;;;;;;;;;;7390915;19;20007;-76
2022/03/24 04:39:07;;;;;;;3.90;1.75;;;;;;;;;;7387954;19;20007;-77
2022/03/24 04:41:32;;;;;;;3.47;1.75;;;;;;;;;;7391717;19;20006;-76
2022/03/24 04:43:58;;;;;;;3.50;1.75;;;;;;;;;;7390820;19;20090;-77
2022/03/24 04:46:24;;;;;;;3.45;1.60;;;;;;;;;;7389821;19;20014;-77
2022/03/24 04:48:49;;;;;;;4.55;1.80;;;;;;;;;;7388475;19;20003;-76
2022/03/24 04:51:16;;;;;;;5.80;2.15;;;;;;;;;;7390486;19;20014;-76
2022/03/24 04:53:42;;;;;;;3.25;1.75;;;;;;;;;;7390363;19;20466;-77
2022/03/24 04:56:08;;;;;;;3.38;1.67;;;;;;;;;;7389438;19;20021;-76
2022/03/24 04:58:34;;;;;;;2.55;1.55;;;;;;;;;;7387820;19;20027;-76
2022/03/24 05:01:00;;;;;;;3.80;1.60;;;;;;;;;;7388674;19;20003;-77
2022/03/24 05:03:25;;;;;;;2.75;1.55;;;;;;;;;;7388120;19;20002;-76
2022/03/24 05:05:50;;;;;;;4.70;1.63;;;;;;;;;;7388507;19;20374;-76
2022/03/24 05:08:15;;;;;;;4.88;1.95;;;;;;;;;;7387761;19;20002;-75
2022/03/24 05:10:41;;;;;;;3.13;1.77;;;;;;;;;;7388773;19;20031;-76
2022/03/24 05:13:06;;;;;;;5.25;2.15;;;;;;;;;;7389162;19;20024;-77
2022/03/24 05:15:32;;;;;;;3.97;1.80;;;;;;;;;;7389782;19;20022;-76
2022/03/24 05:17:57;;;;;;;4.63;2.20;;;;;;;;;;7389021;19;19994;-78
2022/03/24 05:20:23;;;;;;;3.53;2.10;;;;;;;;;;7393817;19;20695;-76
2022/03/24 05:22:48;;;;;;;5.80;2.38;;;;;;;;;;7395466;19;20011;-76
2022/03/24 05:25:14;;;;;;;3.45;1.80;;;;;;;;;;7393013;19;20019;-76
2022/03/24 05:27:39;;;;;;;5.28;2.28;;;;;;;;;;7394341;19;20372;-76
2022/03/24 05:30:05;;;;;;;4.50;1.98;;;;;;;;;;7393370;19;20028;-76
2022/03/24 05:32:31;;;;;;;4.05;1.80;;;;;;;;;;7392259;19;20011;-76
2022/03/24 05:34:56;;;;;;;3.97;1.83;;;;;;;;;;7397128;19;20007;-77
2022/03/24 05:37:22;;;;;;;6.93;2.28;;;;;;;;;;7397457;19;20013;-77
2022/03/24 05:39:47;;;;;;;4.38;2.10;;;;;;;;;;7394227;19;20482;-77
2022/03/24 05:42:12;;;;;;;4.95;1.90;;;;;;;;;;7398259;19;20006;-76
2022/03/24 05:44:38;;;;;;;3.80;2.00;;;;;;;;;;7394679;19;20522;-76
2022/03/24 05:47:03;;;;;;;5.38;2.15;;;;;;;;;;7394899;19;20006;-76
2022/03/24 05:49:29;;;;;;;4.45;1.95;;;;;;;;;;7393046;19;20700;-77
2022/03/24 05:51:54;;;;;;;4.90;2.20;;;;;;;;;;7393867;19;20033;-77
2022/03/24 05:54:20;;;;;;;3.17;1.75;;;;;;;;;;7394390;19;20007;-76
2022/03/24 05:56:47;;;;;;;6.05;2.22;;;;;;;;;;7393677;19;20013;-76
2022/03/24 05:59:13;;;;;;;3.85;1.77;;;;;;;;;;7390119;19;20343;-76
2022/03/24 06:01:40;;;;;;;4.22;2.00;;;;;;;;;;7394061;19;20362;-76
2022/03/24 06:04:07;;;;;;;4.47;2.08;;;;;;;;;;7394379;19;20078;-75
2022/03/24 06:06:37;;;;;;;5.90;2.35;;;;;;;;;;7393022;19;20012;-76
2022/03/24 06:09:04;;;;;;;4.72;2.20;;;;;;;;;;7391160;19;20366;-74
2022/03/24 06:11:30;;;;;;;4.00;2.17;;;;;;;;;;7392442;19;20468;-75
2022/03/24 06:13:55;;;;;;;4.15;2.15;;;;;;;;;;7393230;19;20021;-76
2022/03/24 06:16:22;;;;;;;4.22;1.85;;;;;;;;;;7394374;19;19998;-75
2022/03/24 06:18:47;;;;;;;4.22;2.00;;;;;;;;;;7391603;19;20014;-76
2022/03/24 06:21:14;;;;;;;4.63;2.17;;;;;;;;;;7392974;19;20058;-75
2022/03/24 06:23:40;;;;;;;6.72;2.28;;;;;;;;;;7389103;19;20015;-75
2022/03/24 06:26:05;;;;;;;3.83;2.15;;;;;;;;;;7391851;19;20002;-76
2022/03/24 06:28:30;;;;;;;4.65;2.05;;;;;;;;;;7391545;19;20479;-75
2022/03/24 06:30:56;;;;;;;4.90;2.10;;;;;;;;;;7390612;19;20007;-75
2022/03/24 06:33:21;;;;;;;3.63;1.83;;;;;;;;;;7392703;19;20027;-75
2022/03/24 06:35:48;;;;;;;4.97;2.28;;;;;;;;;;7393974;19;20026;-75
2022/03/24 06:38:14;;;;;;;4.75;2.03;;;;;;;;;;7391416;19;20095;-75
2022/03/24 06:40:40;;;;;;;4.65;2.15;;;;;;;;;;7391912;19;20011;-75
2022/03/24 06:43:06;;;;;;;4.85;2.35;;;;;;;;;;7393105;19;20027;-75
2022/03/24 06:45:32;;;;;;;3.38;2.10;;;;;;;;;;7390812;19;20006;-75
2022/03/24 06:47:58;;;;;;;4.53;1.95;;;;;;;;;;7390067;19;20032;-75
2022/03/24 06:50:24;;;;;;;4.93;2.42;;;;;;;;;;7389191;19;20010;-75
2022/03/24 06:52:50;;;;;;;4.10;2.20;;;;;;;;;;7392085;19;20010;-75
2022/03/24 06:55:16;;;;;;;6.38;2.38;;;;;;;;;;7390488;19;20003;-75
2022/03/24 06:57:42;;;;;;;4.53;2.33;;;;;;;;;;7392523;19;20018;-75
2022/03/24 07:00:11;;;;;;;4.45;2.17;;;;;;;;;;7386133;19;20014;-75
2022/03/24 07:02:36;;;;;;;4.57;2.47;;;;;;;;;;7389724;19;20078;-75
2022/03/24 07:05:02;;;;;;;7.90;2.78;;;;;;;;;;7389670;19;20020;-75
2022/03/24 07:07:27;;;;;;;7.57;3.03;;;;;;;;;;7389025;19;20089;-75
2022/03/24 07:09:53;;;;;;;5.32;2.90;;;;;;;;;;7388177;19;20010;-76
2022/03/24 07:12:22;;;;;;;8.75;3.45;;;;;;;;;;7386903;19;20498;-76
2022/03/24 07:14:47;;;;;;;7.47;3.30;;;;;;;;;;7394296;19;20096;-75
2022/03/24 07:17:14;;;;;;;6.88;3.80;;;;;;;;;;7391498;19;20034;-75
2022/03/24 07:19:39;;;;;;;8.18;3.80;;;;;;;;;;7387521;19;20010;-75
2022/03/24 07:22:05;;;;;;;6.30;3.33;;;;;;;;;;7391503;19;20014;-75
2022/03/24 07:24:30;;;;;;;7.97;3.85;;;;;;;;;;7389212;19;20126;-75
2022/03/24 07:26:55;;;;;;;8.68;4.15;;;;;;;;;;7387753;19;20024;-75
2022/03/24 07:29:21;;;;;;;6.47;3.50;;;;;;;;;;7391044;19;20010;-75
2022/03/24 07:31:46;;;;;;;11.70;4.38;;;;;;;;;;7392102;19;20006;-75
2022/03/24 07:34:11;;;;;;;7.45;4.00;;;;;;;;;;7390187;19;19991;-75
2022/03/24 07:36:37;;;;;;;7.82;4.05;;;;;;;;;;7391910;19;20027;-75
2022/03/24 07:39:02;;;;;;;8.23;4.35;;;;;;;;;;7389113;19;20098;-76
2022/03/24 07:41:29;;;;;;;11.00;4.25;;;;;;;;;;7389080;19;20015;-75
2022/03/24 07:43:55;;;;;;;7.22;4.47;;;;;;;;;;7391861;19;20019;-76
2022/03/24 07:46:20;;;;;;;8.32;4.47;;;;;;;;;;7390493;19;20002;-76
2022/03/24 07:48:49;;;;;;;10.25;5.25;;;;;;;;;;7390404;19;20013;-76
2022/03/24 07:51:16;;;;;;;9.98;5.05;;;;;;;;;;7391487;19;20009;-76
2022/03/24 07:53:47;;;;;;;9.48;5.10;;;;;;;;;;7391531;19;20006;-76
2022/03/24 07:56:14;;;;;;;10.82;5.63;;;;;;;;;;7389352;19;20018;-76
2022/03/24 07:58:40;;;;;;;18.25;5.63;;;;;;;;;;7389309;19;20109;-76
2022/03/24 08:01:06;;;;;;;11.70;5.93;;;;;;;;;;7389790;19;20010;-75
2022/03/24 08:03:32;;;;;;;14.77;6.10;;;;;;;;;;7388652;19;20399;-76
2022/03/24 08:05:58;;;;;;;10.70;5.55;;;;;;;;;;7390441;19;20021;-75
2022/03/24 08:08:23;;;;;;;12.88;6.38;;;;;;;;;;7389155;19;20034;-75
2022/03/24 08:10:51;;;;;;;11.52;6.43;;;;;;;;;;7386940;19;19999;-76
2022/03/24 08:13:18;;;;;;;11.90;5.97;;;;;;;;;;7389870;19;20014;-76
2022/03/24 08:15:44;;;;;;;11.30;6.07;;;;;;;;;;7391415;19;20002;-76
2022/03/24 08:18:10;;;;;;;13.98;7.13;;;;;;;;;;7386435;19;20397;-77
2022/03/24 08:20:36;;;;;;;19.00;7.00;;;;;;;;;;7387879;19;20451;-75
2022/03/24 08:23:03;;;;;;;13.80;7.32;;;;;;;;;;7384127;19;20002;-76
2022/03/24 08:25:30;;;;;;;16.05;6.88;;;;;;;;;;7383654;19;20022;-75
2022/03/24 08:27:55;;;;;;;10.05;5.95;;;;;;;;;;7385976;19;20061;-75
2022/03/24 08:30:21;;;;;;;12.10;6.88;;;;;;;;;;7381685;19;20018;-75
2022/03/24 08:32:47;;;;;;;11.93;6.68;;;;;;;;;;7388531;19;20053;-75
2022/03/24 08:35:12;;;;;;;13.45;6.47;;;;;;;;;;7388519;19;20041;-75
2022/03/24 08:37:38;;;;;;;15.43;6.38;;;;;;;;;;7387672;19;20014;-76
2022/03/24 08:40:04;;;;;;;12.52;6.88;;;;;;;;;;7382268;19;20014;-75
2022/03/24 08:42:30;;;;;;;10.90;6.75;;;;;;;;;;7389881;19;20015;-78
2022/03/24 08:44:55;;;;;;;15.30;7.15;;;;;;;;;;7390108;19;20007;-76
2022/03/24 08:47:20;;;;;;;15.43;7.07;;;;;;;;;;7389521;19;20010;-76
2022/03/24 08:49:45;;;;;;;14.68;7.10;;;;;;;;;;7384402;19;20010;-76
2022/03/24 08:52:12;;;;;;;15.23;6.88;;;;;;;;;;7391076;19;20003;-75
2022/03/24 08:54:37;;;;;;;17.80;6.53;;;;;;;;;;7395824;19;20010;-75
2022/03/24 08:57:02;;;;;;;12.75;6.78;;;;;;;;;;7397102;19;20446;-76
2022/03/24 08:59:28;;;;;;;12.93;6.40;;;;;;;;;;7395899;19;20011;-76
2022/03/24 09:01:53;;;;;;;11.77;6.57;;;;;;;;;;7393287;19;20042;-75
2022/03/24 09:04:20;;;;;;;13.13;6.70;;;;;;;;;;7389590;19;20102;-76
2022/03/24 09:06:46;;;;;;;13.70;7.03;;;;;;;;;;7393006;19;20014;-75
2022/03/24 09:09:11;;;;;;;14.43;6.68;;;;;;;;;;7393522;19;20003;-76
2022/03/24 09:11:37;;;;;;;11.13;6.57;;;;;;;;;;7393361;19;20036;-76
2022/03/24 09:14:02;;;;;;;12.45;6.85;;;;;;;;;;7394337;19;20031;-76
2022/03/24 09:16:28;;;;;;;11.25;7.03;;;;;;;;;;7396695;19;20002;-76
2022/03/24 09:18:53;;;;;;;15.23;6.63;;;;;;;;;;7387704;19;20005;-76
2022/03/24 09:21:19;;;;;;;13.82;7.28;;;;;;;;;;7395119;19;20003;-75
2022/03/24 09:23:44;;;;;;;17.20;7.68;;;;;;;;;;7395100;19;20014;-76
2022/03/24 09:26:09;;;;;;;14.95;7.10;;;;;;;;;;7393479;19;20011;-76
2022/03/24 09:28:36;;;;;;;11.80;6.53;;;;;;;;;;7394247;19;20403;-76
2022/03/24 09:31:01;;;;;;;13.98;7.07;;;;;;;;;;7394390;19;20074;-75
2022/03/24 09:33:27;;;;;;;12.15;6.32;;;;;;;;;;7390789;19;20023;-76
2022/03/24 09:35:52;;;;;;;9.63;5.95;;;;;;;;;;7393086;19;20192;-76
2022/03/24 09:38:18;;;;;;;12.68;7.07;;;;;;;;;;7391860;19;20002;-75
2022/03/24 09:40:45;;;;;;;13.68;7.22;;;;;;;;;;7389619;19;20030;-76
2022/03/24 09:43:13;;;;;;;12.68;6.30;;;;;;;;;;7392204;19;20894;-76
2022/03/24 09:45:38;;;;;;;12.80;6.85;;;;;;;;;;7391192;19;20015;-76
2022/03/24 09:48:06;;;;;;;14.25;6.53;;;;;;;;;;7390601;19;20013;-76
2022/03/24 09:50:34;;;;;;;12.82;6.65;;;;;;;;;;7390667;19;20043;-75
2022/03/24 09:52:59;;;;;;;12.38;7.45;;;;;;;;;;7392556;19;20002;-76
2022/03/24 09:55:26;;;;;;;13.73;6.07;;;;;;;;;;7391955;19;20001;-76
2022/03/24 09:57:51;;;;;;;10.75;5.68;;;;;;;;;;7393775;19;20081;-76
2022/03/24 10:00:16;;;;;;;11.43;6.72;;;;;;;;;;7389952;19;20584;-76
2022/03/24 10:02:42;;;;;;;11.50;6.55;;;;;;;;;;7393301;19;20336;-76
2022/03/24 10:05:08;;;;;;;13.23;6.75;;;;;;;;;;7393685;19;20009;-76
2022/03/24 10:07:43;;;;;;;13.68;6.93;;;;;;;;;;7390728;19;20002;-76
2022/03/24 10:10:08;;;;;;;11.25;6.43;;;;;;;;;;7388348;19;20014;-76
2022/03/24 10:12:37;;;;;;;9.98;6.47;;;;;;;;;;7395289;19;20007;-76
2022/03/24 10:15:09;;;;;;;11.65;6.18;;;;;;;;;;7390933;19;20017;-75
2022/03/24 10:17:36;;;;;;;10.20;6.50;;;;;;;;;;7391476;19;20356;-76
2022/03/24 10:20:04;;;;;;;14.50;6.88;;;;;;;;;;7390741;19;20010;-76
2022/03/24 10:22:31;;;;;;;17.48;7.63;;;;;;;;;;7391393;19;20009;-75
2022/03/24 10:24:57;;;;;;;11.82;7.00;;;;;;;;;;7393787;19;20007;-76
2022/03/24 10:27:27;;;;;;;11.48;6.05;;;;;;;;;;7393011;19;20437;-77
2022/03/24 10:29:54;;;;;;;11.63;6.50;;;;;;;;;;7392269;19;20010;-76
2022/03/24 10:32:21;;;;;;;11.10;6.15;;;;;;;;;;7388682;19;20450;-76
2022/03/24 10:34:48;;;;;;;8.43;5.50;;;;;;;;;;7393496;19;20439;-76
2022/03/24 10:37:20;;;;;;;12.80;6.40;;;;;;;;;;7390581;19;20014;-76
2022/03/24 10:40:02;;;;;;;14.95;6.97;;;;;;;;;;7388275;19;20007;-76
2022/03/24 10:42:30;;;;;;;12.30;6.30;;;;;;;;;;7392180;19;20006;-76
2022/03/24 10:45:20;;;;;;;9.93;5.95;;;;;;;;;;7393110;19;20006;-76
2022/03/24 10:47:54;;;;;;;8.95;5.63;;;;;;;;;;7388692;19;20014;-76
2022/03/24 10:50:40;;;;;;;10.40;6.27;;;;;;;;;;7389704;19;20110;-77
2022/03/24 10:53:13;;;;;;;10.18;6.25;;;;;;;;;;7391565;19;20039;-76
2022/03/24 10:55:45;;;;;;;13.27;5.80;;;;;;;;;;7389276;19;20011;-76
2022/03/24 10:58:28;;;;;;;9.23;5.93;;;;;;;;;;7389439;19;20006;-76
2022/03/24 11:00:57;;;;;;;9.68;5.50;;;;;;;;;;7388542;19;20035;-77
2022/03/24 11:03:22;;;;;;;8.98;5.68;;;;;;;;;;7390325;19;20014;-76
2022/03/24 11:05:48;;;;;;;11.07;5.72;;;;;;;;;;7391694;19;20077;-77
2022/03/24 11:08:18;;;;;;;8.35;5.68;;;;;;;;;;7387827;19;20450;-76
2022/03/24 11:10:49;;;;;;;9.32;5.82;;;;;;;;;;7390030;19;20019;-77
2022/03/24 11:13:23;;;;;;;9.13;5.93;;;;;;;;;;7388798;19;20033;-76
2022/03/24 11:15:50;;;;;;;12.70;5.65;;;;;;;;;;7390138;19;20073;-77
2022/03/24 11:18:16;;;;;;;9.20;5.70;;;;;;;;;;7388862;19;20010;-77
2022/03/24 11:20:41;;;;;;;9.27;5.85;;;;;;;;;;7384332;19;20014;-77
2022/03/24 11:23:29;;;;;;;9.68;5.90;;;;;;;;;;7388776;19;20027;-77
2022/03/24 11:25:57;;;;;;;9.70;5.05;;;;;;;;;;7387941;19;20377;-77
2022/03/24 11:28:23;;;;;;;9.43;4.95;;;;;;;;;;7387007;19;20003;-77
2022/03/24 11:30:50;;;;;;;6.80;4.57;;;;;;;;;;7389110;19;20010;-77
2022/03/24 11:33:16;;;;;;;7.18;4.45;;;;;;;;;;7387979;19;20078;-77
2022/03/24 11:35:42;;;;;;;8.32;5.45;;;;;;;;;;7389046;19;20454;-77
2022/03/24 11:38:07;;;;;;;9.18;5.30;;;;;;;;;;7387206;19;20035;-77
2022/03/24 11:40:34;;;;;;;10.63;5.72;;;;;;;;;;7384981;19;20050;-77
2022/03/24 11:43:18;;;;;;;10.45;5.57;;;;;;;;;;7388788;19;20010;-77
2022/03/24 11:45:49;;;;;;;8.90;5.57;;;;;;;;;;7389186;19;20013;-77
2022/03/24 11:48:16;;;;;;;9.20;5.90;;;;;;;;;;7388120;19;20102;-77
2022/03/24 11:50:45;;;;;;;9.63;6.70;;;;;;;;;;7387497;19;20006;-77
2022/03/24 11:53:35;;;;;;;9.23;6.18;;;;;;;;;;7388633;19;20047;-77
2022/03/24 11:56:03;;;;;;;11.05;6.25;;;;;;;;;;7387583;19;20538;-77
2022/03/24 11:58:31;;;;;;;11.02;6.70;;;;;;;;;;7388271;19;20003;-77
2022/03/24 12:00:57;;;;;;;10.63;6.70;;;;;;;;;;7383356;19;20055;-77
2022/03/24 12:03:43;;;;;;;10.65;6.70;;;;;;;;;;7385441;19;20010;-77
2022/03/24 12:06:10;;;;;;;11.13;6.60;;;;;;;;;;7388086;19;20014;-78
2022/03/24 12:08:45;;;;;;;12.38;6.22;;;;;;;;;;7387454;19;20312;-77
2022/03/24 12:11:31;;;;;;;8.82;5.72;;;;;;;;;;7389573;19;20018;-77
2022/03/24 12:13:57;;;;;;;9.15;5.75;;;;;;;;;;7386969;19;20014;-77
2022/03/24 12:16:24;;;;;;;9.80;5.65;;;;;;;;;;7388806;19;20028;-77
2022/03/24 12:18:50;;;;;;;15.15;7.22;;;;;;;;;;7388250;19;20010;-77
2022/03/24 12:21:24;;;;;;;10.90;6.43;;;;;;;;;;7387914;19;20023;-76
2022/03/24 12:24:02;;;;;;;10.02;6.05;;;;;;;;;;7388040;19;20010;-76
2022/03/24 12:26:29;;;;;;;16.50;6.05;;;;;;;;;;7385457;19;20454;-76
2022/03/24 12:29:10;;;;;;;8.18;5.82;;;;;;;;;;7383539;19;20454;-76
2022/03/24 12:31:55;;;;;;;13.10;6.97;;;;;;;;;;7386970;19;20022;-75
2022/03/24 12:34:21;;;;;;;8.93;5.70;;;;;;;;;;7388947;19;20034;-75
2022/03/24 12:36:47;;;;;;;7.30;4.95;;;;;;;;;;7387754;19;20010;-76
2022/03/24 12:39:29;;;;;;;8.88;5.25;;;;;;;;;;7386605;19;20079;-76
2022/03/24 12:42:06;;;;;;;7.72;4.95;;;;;;;;;;7388908;19;20002;-75
2022/03/24 12:44:55;;;;;;;5.72;4.00;;;;;;;;;;7387235;19;20445;-75
2022/03/24 12:47:38;;;;;;;14.25;6.35;;;;;;;;;;7379478;19;20029;-76
2022/03/24 12:50:30;;;;;;;10.52;6.18;;;;;;;;;;7381324;19;20089;-75
2022/03/24 12:53:07;;;;;;;13.52;6.55;;;;;;;;;;7382294;19;20070;-76
2022/03/24 12:55:33;;;;;;;10.82;5.93;;;;;;;;;;7382744;19;20346;-76
2022/03/24 12:58:02;;;;;;;7.78;5.00;;;;;;;;;;7380968;19;20017;-76
2022/03/24 13:00:30;;;;;;;8.25;4.78;;;;;;;;;;7378223;19;20010;-76
2022/03/24 13:02:56;;;;;;;9.07;5.07;;;;;;;;;;7383673;19;20010;-76
2022/03/24 13:05:33;;;;;;;9.05;4.70;;;;;;;;;;7384272;19;20416;-76
2022/03/24 13:08:01;;;;;;;7.63;4.95;;;;;;;;;;7383664;19;20371;-77
2022/03/24 13:10:30;;;;;;;11.73;4.68;;;;;;;;;;7381533;19;20018;-76
2022/03/24 13:12:56;;;;;;;6.53;4.32;;;;;;;;;;7385430;19;20389;-74
2022/03/24 13:15:30;;;;;;;6.70;4.97;;;;;;;;;;7384825;19;20009;-77
2022/03/24 13:17:57;;;;;;;9.05;5.00;;;;;;;;;;7386070;19;20013;-74
2022/03/24 13:20:25;;;;;;;7.10;4.40;;;;;;;;;;7378898;19;20005;-75
2022/03/24 13:22:50;;;;;;;7.97;4.45;;;;;;;;;;7382588;19;20028;-76
2022/03/24 13:25:21;;;;;;;7.72;4.05;;;;;;;;;;7380548;19;20011;-76
2022/03/24 13:27:51;;;;;;;4.57;3.63;;;;;;;;;;7387094;19;20010;-76
2022/03/24 13:30:18;;;;;;;7.22;4.07;;;;;;;;;;7385382;19;20019;-75
2022/03/24 13:32:46;;;;;;;8.52;4.03;;;;;;;;;;7387740;19;20500;-77
2022/03/24 13:35:15;;;;;;;5.93;4.35;;;;;;;;;;7386322;19;20070;-74
2022/03/24 13:37:50;;;;;;;6.43;4.57;;;;;;;;;;7386503;19;20089;-75
2022/03/24 13:40:18;;;;;;;6.28;4.10;;;;;;;;;;7391535;19;20018;-76
2022/03/24 13:42:45;;;;;;;5.57;3.95;;;;;;;;;;7396052;19;20011;-75
2022/03/24 13:45:11;;;;;;;5.25;3.88;;;;;;;;;;7392546;19;20002;-72
2022/03/24 13:47:48;;;;;;;5.32;3.25;;;;;;;;;;7393737;19;20010;-76
2022/03/24 13:50:20;;;;;;;8.35;4.03;;;;;;;;;;7391795;19;20399;-78
2022/03/24 13:52:50;;;;;;;5.57;3.13;;;;;;;;;;7395662;19;20027;-78
2022/03/24 13:55:20;;;;;;;5.35;3.65;;;;;;;;;;7394471;19;20322;-77
2022/03/24 13:58:00;;;;;;;4.93;3.00;;;;;;;;;;7396519;19;20013;-77
2022/03/24 14:00:54;;;;;;;6.03;3.20;;;;;;;;;;7392576;19;20344;-75
2022/03/24 14:03:21;;;;;;;5.78;3.20;;;;;;;;;;7389994;19;20825;-75
2022/03/24 14:05:48;;;;;;;12.10;3.30;;;;;;;;;;7390245;19;20089;-78
2022/03/24 14:08:17;;;;;;;6.40;3.58;;;;;;;;;;7388434;19;20010;-76
2022/03/24 14:10:43;;;;;;;4.53;3.22;;;;;;;;;;7393153;19;20007;-76
2022/03/24 14:13:19;;;;;;;6.45;3.22;;;;;;;;;;7394251;19;20017;-75
2022/03/24 14:15:45;;;;;;;4.70;3.53;;;;;;;;;;7392561;19;20085;-77
2022/03/24 14:18:25;;;;;;;15.40;4.53;;;;;;;;;;7392523;19;20010;-75
2022/03/24 14:20:51;;;;;;;10.15;3.42;;;;;;;;;;7393408;19;20041;-77
2022/03/24 14:23:29;;;;;;;4.75;3.35;;;;;;;;;;7393069;19;20009;-75
2022/03/24 14:25:58;;;;;;;7.45;3.40;;;;;;;;;;7392716;19;20002;-75
2022/03/24 14:28:43;;;;;;;9.25;2.90;;;;;;;;;;7389673;19;20014;-74
2022/03/24 14:31:16;;;;;;;4.05;3.28;;;;;;;;;;7390647;19;20002;-76
2022/03/24 14:33:44;;;;;;;8.52;3.40;;;;;;;;;;7393224;19;20026;-75
2022/03/24 14:36:10;;;;;;;4.70;2.97;;;;;;;;;;7391490;19;20014;-78
2022/03/24 14:38:35;;;;;;;7.65;3.00;;;;;;;;;;7389484;19;20007;-77
2022/03/24 14:41:01;;;;;;;3.97;3.10;;;;;;;;;;7388191;19;20013;-77
2022/03/24 14:43:26;;;;;;;3.70;3.03;;;;;;;;;;7392410;19;20006;-77